createdAt,value
2018-11-26T00:02:04.265Z,11.10
2018-11-26T00:07:06.951Z,12.57
2018-11-26T00:12:09.386Z,9.33
2018-11-26T00:17:11.853Z,8.77
2018-11-26T00:22:14.359Z,15.13
2018-11-26T00:27:16.773Z,10.83
2018-11-26T00:32:19.233Z,14.70
2018-11-26T00:37:21.681Z,9.00
2018-11-26T00:42:24.180Z,17.57
2018-11-26T00:47:26.597Z,4.27
2018-11-26T00:52:29.105Z,6.77
2018-11-26T00:57:31.570Z,7.10
2018-11-26T01:02:34.026Z,14.87
2018-11-26T01:07:36.520Z,19.07
2018-11-26T01:12:39.055Z,15.00
2018-11-26T01:17:41.486Z,14.17
2018-11-26T01:22:43.960Z,23.70
2018-11-26T01:27:46.437Z,6.23
2018-11-26T01:32:48.867Z,8.27
2018-11-26T01:37:51.364Z,9.60
2018-11-26T01:42:53.824Z,15.27
2018-11-26T01:47:56.325Z,22.03
2018-11-26T01:52:58.780Z,30.90
2018-11-26T01:58:01.878Z,19.77
2018-11-26T02:03:04.369Z,9.43
2018-11-26T02:08:06.835Z,24.73
2018-11-26T02:13:10.354Z,14.90
2018-11-26T02:18:12.843Z,23.70
2018-11-26T02:23:15.381Z,14.83
2018-11-26T02:28:17.837Z,17.70
2018-11-26T02:33:20.331Z,13.10
2018-11-26T02:38:22.766Z,12.17
2018-11-26T02:43:25.261Z,30.17
2018-11-26T02:48:27.686Z,22.33
2018-11-26T02:53:30.192Z,34.57
2018-11-26T02:58:32.661Z,7.70
2018-11-26T03:03:35.082Z,26.60
2018-11-26T03:08:37.552Z,24.60
2018-11-26T03:13:39.989Z,21.93
2018-11-26T03:18:42.480Z,31.87
2018-11-26T03:23:44.952Z,24.07
2018-11-26T03:28:47.412Z,22.90
2018-11-26T03:33:49.906Z,21.03
2018-11-26T03:38:53.813Z,21.57
2018-11-26T03:43:56.326Z,22.87
2018-11-26T03:48:58.804Z,11.57
2018-11-26T03:54:01.245Z,28.67
2018-11-26T03:59:03.708Z,19.27
2018-11-26T04:04:06.188Z,29.37
2018-11-26T04:09:08.717Z,32.07
2018-11-26T04:14:11.141Z,21.47
2018-11-26T04:19:14.643Z,26.77
2018-11-26T04:24:17.074Z,7.20
2018-11-26T04:29:19.530Z,10.93
2018-11-26T04:34:21.969Z,24.93
2018-11-26T04:39:24.429Z,17.20
2018-11-26T04:44:26.893Z,20.80
2018-11-26T04:49:29.343Z,26.37
2018-11-26T04:54:31.887Z,12.57
2018-11-26T04:59:35.448Z,21.57
2018-11-26T05:04:37.920Z,25.50
2018-11-26T05:09:40.426Z,27.07
2018-11-26T05:14:43.238Z,20.43
2018-11-26T05:19:45.695Z,33.97
2018-11-26T05:24:48.158Z,31.33
2018-11-26T05:29:50.681Z,28.43
2018-11-26T05:34:53.300Z,26.60
2018-11-26T05:39:55.791Z,28.47
2018-11-26T05:44:58.270Z,23.27
2018-11-26T05:50:01.019Z,36.40
2018-11-26T05:55:03.653Z,36.80
2018-11-26T06:00:10.978Z,18.13
2018-11-26T06:05:13.428Z,37.07
2018-11-26T06:10:15.856Z,36.20
2018-11-26T06:15:18.326Z,37.20
2018-11-26T06:20:20.809Z,20.30
2018-11-26T06:25:23.347Z,38.80
2018-11-26T06:30:25.932Z,46.37
2018-11-26T06:35:28.409Z,48.47
2018-11-26T06:40:30.940Z,38.87
2018-11-26T06:45:33.822Z,41.23
2018-11-26T06:50:36.986Z,40.17
2018-11-26T06:55:39.657Z,43.63
2018-11-26T07:00:42.096Z,53.03
2018-11-26T07:05:51.748Z,42.97
2018-11-26T07:10:54.297Z,37.13
2018-11-26T07:15:56.796Z,39.47
2018-11-26T07:20:59.269Z,39.13
2018-11-26T07:26:02.647Z,41.33
2018-11-26T07:31:05.507Z,17.70
2018-11-26T07:36:11.394Z,35.50
2018-11-26T07:41:10.499Z,44.00
2018-11-26T07:46:12.938Z,31.73
2018-11-26T07:51:16.933Z,40.40
2018-11-26T07:56:19.601Z,35.10
2018-11-26T08:01:22.141Z,9.53
2018-11-26T08:06:26.414Z,29.07
2018-11-26T08:11:28.847Z,27.83
2018-11-26T08:16:31.297Z,39.47
2018-11-26T08:21:33.796Z,20.00
2018-11-26T08:26:36.305Z,24.60
2018-11-26T14:32:19.222Z,15.77
2018-11-26T14:37:21.703Z,33.20
2018-11-26T14:42:24.160Z,29.90
2018-11-26T14:47:26.637Z,44.87
2018-11-26T14:52:29.177Z,38.97
2018-11-26T14:57:31.620Z,35.50
2018-11-26T15:02:34.103Z,40.73
2018-11-26T15:07:36.611Z,44.07
2018-11-26T15:12:39.139Z,51.53
2018-11-26T15:17:42.360Z,40.70
2018-11-26T15:22:44.883Z,44.57
2018-11-26T15:27:47.359Z,45.00
2018-11-26T15:32:49.855Z,33.30
2018-11-26T15:37:52.372Z,33.03
2018-11-26T15:42:56.146Z,51.63
2018-11-26T15:47:58.720Z,53.77
2018-11-26T15:53:01.223Z,37.60
2018-11-26T15:58:03.862Z,38.73
2018-11-26T16:03:06.758Z,35.77
2018-11-26T16:08:10.954Z,43.27
2018-11-26T16:13:14.882Z,45.97
2018-11-26T16:18:20.673Z,38.73
2018-11-26T16:23:23.177Z,65.33
2018-11-26T16:28:26.697Z,37.27
2018-11-26T16:33:30.179Z,51.60
2018-11-26T16:38:34.294Z,48.20
2018-11-26T16:43:36.825Z,53.67
2018-11-26T16:48:39.308Z,44.43
2018-11-26T16:53:42.004Z,35.50
2018-11-26T16:58:44.515Z,37.33
2018-11-26T17:03:46.938Z,39.93
2018-11-26T17:08:49.528Z,35.87
2018-11-26T17:13:52.027Z,36.67
2018-11-26T17:18:54.535Z,41.87
2018-11-26T17:23:58.828Z,32.17
2018-11-26T17:29:01.294Z,38.77
2018-11-26T17:34:04.210Z,37.73
2018-11-26T17:39:08.113Z,44.57
2018-11-26T17:44:10.815Z,34.60
2018-11-26T17:49:13.270Z,40.47
2018-11-26T17:54:15.795Z,57.63
2018-11-26T17:59:18.268Z,39.67
2018-11-26T18:04:20.706Z,42.50
2018-11-26T18:09:23.203Z,49.30
2018-11-26T18:14:25.659Z,44.73
2018-11-26T18:19:28.138Z,43.83
2018-11-26T18:24:30.602Z,44.90
2018-11-26T18:29:33.087Z,34.37
2018-11-26T18:34:37.101Z,35.90
2018-11-26T18:39:39.595Z,45.80
2018-11-26T18:44:42.131Z,48.97
2018-11-26T18:49:44.600Z,40.20
2018-11-26T18:54:47.254Z,43.30
2018-11-26T18:59:49.727Z,47.77
2018-11-26T19:04:52.272Z,49.90
2018-11-26T19:09:54.787Z,40.20
2018-11-26T19:14:57.325Z,35.47
2018-11-26T19:20:01.187Z,51.00
2018-11-26T19:25:04.155Z,53.23
2018-11-26T19:30:10.086Z,51.33
2018-11-26T19:35:13.952Z,45.87
2018-11-26T19:40:17.134Z,43.67
2018-11-26T19:45:20.375Z,42.20
2018-11-26T19:50:22.911Z,44.97
2018-11-26T19:55:26.105Z,42.90
2018-11-26T20:00:29.879Z,41.67
2018-11-26T20:05:46.083Z,46.57
2018-11-26T20:10:48.580Z,43.23
2018-11-26T20:15:51.395Z,44.90
2018-11-26T20:20:53.879Z,44.43
2018-11-26T20:25:56.361Z,43.10
2018-11-26T20:30:59.416Z,47.93
2018-11-26T20:36:01.919Z,46.73
2018-11-26T20:41:05.692Z,48.83
2018-11-26T20:46:08.338Z,44.53
2018-11-26T20:51:10.990Z,50.70
2018-11-26T20:56:16.822Z,42.20
2018-11-26T21:01:19.254Z,29.13
2018-11-26T21:06:21.800Z,45.03
2018-11-26T21:11:24.326Z,52.53
2018-11-26T21:16:26.805Z,60.47
2018-11-26T21:21:29.455Z,49.20
2018-11-26T21:26:33.786Z,46.07
2018-11-26T21:31:36.395Z,46.10
2018-11-26T21:36:38.972Z,36.57
2018-11-26T21:41:41.547Z,34.03
2018-11-26T21:46:44.099Z,44.37
2018-11-26T21:51:46.609Z,37.93
2018-11-26T21:56:49.703Z,44.87
2018-11-26T22:01:52.383Z,42.93
2018-11-26T22:06:54.944Z,45.07
2018-11-26T22:11:57.455Z,38.53
2018-11-26T22:16:59.984Z,43.93
2018-11-26T22:22:02.479Z,40.83
2018-11-26T22:27:05.027Z,38.40
2018-11-26T22:32:07.538Z,37.80
2018-11-26T22:37:10.019Z,34.50
2018-11-26T22:42:12.463Z,33.73
2018-11-26T22:47:15.033Z,39.90
2018-11-26T22:52:17.476Z,34.90
2018-11-26T22:57:19.979Z,33.50
2018-11-26T23:02:22.391Z,37.43
2018-11-26T23:07:24.900Z,32.83
2018-11-26T23:12:27.359Z,36.60
2018-11-26T23:17:29.877Z,31.20
2018-11-26T23:22:32.334Z,27.53
2018-11-26T23:27:34.801Z,31.03
2018-11-26T23:32:37.313Z,29.17
2018-11-26T23:37:39.759Z,31.83
2018-11-26T23:42:42.240Z,34.63
2018-11-26T23:47:44.736Z,34.60
2018-11-26T23:52:47.278Z,39.43
2018-11-26T23:57:49.850Z,33.13
